Pronóstico
Mapa Interactivo
Aviación
Climatología
Hidrometeorología
Agrometeorología
Estaciones Automáticas
Transparencia
OMM WMO
Portada
Institución
Noticias
Imágenes
Tsunami
Historial
Boletines y Alertas
Contactos
Buscar Contenidos
Informe del Tiempo

      SANTO DOMINGO 23 DE OCTUBRE DE 2017                                                                                                                                                                                                                                                                                                               

 

 

FTDR31 MDSD 231600Z

TAF

TAF MDPP 231600Z 2318/2418 08010KT 9999 SCT020 BECMG 2401/2403 00000KT FEW018=

TAF MDST 231600Z 2318/2418 10012KT 9999 BKN020 PROB30 2302/2402 7000 -RA BKN020 SCT070=

TAF MDPC 231600Z 2318/2418 09015KT 9999 FEW023 PROB30 2322/2402 8000 -SHRA BKN018 BECMG 2403/2405 VRB03KT=

TAF MDBH 231600Z 2318/2418 13016KT 9999 FEW016CB SCT018 SCT300=

TAF MDJB 231600Z 2318/2418 12010KT 9999 SCT020 PROB30 2320/2402 8000 -RA BKN018 SCT070=

TAF MDSD 231600Z 2318/2418 13010KT 9999 FEW018CB SCT022 PROB30 2320/2402 7000 -TSRA FEW016CB BKN018 BECMG 2402/2404 02004KT=

TAF MDLR 231600Z 2318/2418 09012KT 9999 SCT018 SCT300 PROB30 2319/2402 7000 -TSRA FEW016CB BKN018 BECMG 2400/2402 00000KT= 

 

TAF MDCY 231600Z 2318/2418 09010KT 9999 FEW018 PROB30 2318/2400 8000 SH BKN016=

 

MDPP AEROPUERTO INTERNACIONAL LA UNION PUERTO PLATA

MDST AEROPUERTO INTERNACIONAL DE SANTIAGO

MDPC AEROPUERTO INTERNACIONAL PUNTA CANA

MDBH AEROPUERTO INTERNACIONAL DE BARAHONA

MDJB AEROPUERTO INTERNACIONAL JOAQUIN BALAGUER

MDSD AEROPUERTO INTERNACIONAL DE LAS AMERICAS

MDLR AEROPUERTO INTERNACIONAL LA ROMANA

MDCY AEROPUERTO INTERNACIONAL DE CATEY

 

ELIZABETH FELIZ

MDPP// S. ROSARIO

MDST// S. POLANCO

MDPC// RODRIGUEZ

MDJB// D. CACERES

MDLR// Y. MEJIA

MDCY// A. FROMETA